sensor_id;sensor_type;location;lat;lon;timestamp;P1;durP1;ratioP1;P2;durP2;ratioP2
11817;SDS011;5966;52.402;5.322;2022-09-12T00:01:01;11.43;;;9.67;;
11817;SDS011;5966;52.402;5.322;2022-09-12T00:03:30;10.83;;;9.73;;
11817;SDS011;5966;52.402;5.322;2022-09-12T00:05:58;11.43;;;10.33;;
11817;SDS011;5966;52.402;5.322;2022-09-12T00:08:28;15.60;;;11.27;;
11817;SDS011;5966;52.402;5.322;2022-09-12T00:10:55;12.30;;;11.10;;
11817;SDS011;5966;52.402;5.322;2022-09-12T00:13:23;12.90;;;11.70;;
11817;SDS011;5966;52.402;5.322;2022-09-12T00:15:51;12.63;;;11.43;;
11817;SDS011;5966;52.402;5.322;2022-09-12T00:18:19;12.87;;;11.57;;
11817;SDS011;5966;52.402;5.322;2022-09-12T00:20:48;12.37;;;11.17;;
11817;SDS011;5966;52.402;5.322;2022-09-12T00:23:19;12.97;;;11.77;;
11817;SDS011;5966;52.402;5.322;2022-09-12T00:33:15;13.73;;;12.33;;
11817;SDS011;5966;52.402;5.322;2022-09-12T00:35:58;14.30;;;12.67;;
11817;SDS011;5966;52.402;5.322;2022-09-12T00:39:00;14.30;;;12.83;;
11817;SDS011;5966;52.402;5.322;2022-09-12T00:41:54;14.60;;;13.10;;
11817;SDS011;5966;52.402;5.322;2022-09-12T00:44:44;15.17;;;12.57;;
11817;SDS011;5966;52.402;5.322;2022-09-12T00:47:24;14.77;;;12.90;;
11817;SDS011;5966;52.402;5.322;2022-09-12T00:50:03;15.53;;;13.03;;
11817;SDS011;5966;52.402;5.322;2022-09-12T00:52:38;14.90;;;13.00;;
11817;SDS011;5966;52.402;5.322;2022-09-12T00:55:12;14.33;;;12.73;;
11817;SDS011;5966;52.402;5.322;2022-09-12T00:57:44;14.60;;;13.20;;
11817;SDS011;5966;52.402;5.322;2022-09-12T01:00:22;16.27;;;12.37;;
11817;SDS011;5966;52.402;5.322;2022-09-12T01:03:06;15.20;;;13.60;;
11817;SDS011;5966;52.402;5.322;2022-09-12T01:05:39;16.70;;;13.57;;
11817;SDS011;5966;52.402;5.322;2022-09-12T01:08:13;15.40;;;13.90;;
11817;SDS011;5966;52.402;5.322;2022-09-12T01:10:46;14.77;;;13.20;;
11817;SDS011;5966;52.402;5.322;2022-09-12T01:13:18;15.60;;;13.90;;
11817;SDS011;5966;52.402;5.322;2022-09-12T01:15:57;15.17;;;13.47;;
11817;SDS011;5966;52.402;5.322;2022-09-12T01:18:27;15.97;;;13.90;;
11817;SDS011;5966;52.402;5.322;2022-09-12T01:21:05;18.97;;;14.10;;
11817;SDS011;5966;52.402;5.322;2022-09-12T01:23:48;18.90;;;14.20;;
11817;SDS011;5966;52.402;5.322;2022-09-12T01:26:43;15.97;;;13.63;;
11817;SDS011;5966;52.402;5.322;2022-09-12T01:29:42;18.17;;;14.27;;
11817;SDS011;5966;52.402;5.322;2022-09-12T01:32:36;16.43;;;14.87;;
11817;SDS011;5966;52.402;5.322;2022-09-12T01:35:18;15.90;;;14.20;;
11817;SDS011;5966;52.402;5.322;2022-09-12T01:37:59;16.73;;;15.03;;
11817;SDS011;5966;52.402;5.322;2022-09-12T01:40:39;16.30;;;14.43;;
11817;SDS011;5966;52.402;5.322;2022-09-12T01:43:15;16.93;;;15.27;;
11817;SDS011;5966;52.402;5.322;2022-09-12T01:45:52;16.30;;;14.43;;
11817;SDS011;5966;52.402;5.322;2022-09-12T01:48:32;16.67;;;15.00;;
11817;SDS011;5966;52.402;5.322;2022-09-12T01:51:03;20.17;;;16.40;;
11817;SDS011;5966;52.402;5.322;2022-09-12T01:53:38;18.90;;;16.63;;
11817;SDS011;5966;52.402;5.322;2022-09-12T01:56:19;18.50;;;16.47;;
11817;SDS011;5966;52.402;5.322;2022-09-12T01:58:55;19.77;;;17.23;;
11817;SDS011;5966;52.402;5.322;2022-09-12T02:01:32;19.70;;;17.27;;
11817;SDS011;5966;52.402;5.322;2022-09-12T02:04:08;18.73;;;15.70;;
11817;SDS011;5966;52.402;5.322;2022-09-12T02:06:43;18.70;;;16.53;;
11817;SDS011;5966;52.402;5.322;2022-09-12T02:09:21;17.47;;;15.63;;
11817;SDS011;5966;52.402;5.322;2022-09-12T02:11:54;19.03;;;16.80;;
11817;SDS011;5966;52.402;5.322;2022-09-12T02:14:30;17.73;;;15.87;;
11817;SDS011;5966;52.402;5.322;2022-09-12T02:17:05;17.93;;;16.10;;
11817;SDS011;5966;52.402;5.322;2022-09-12T02:19:41;17.83;;;15.93;;
11817;SDS011;5966;52.402;5.322;2022-09-12T02:22:14;18.57;;;15.90;;
11817;SDS011;5966;52.402;5.322;2022-09-12T02:24:47;20.93;;;15.43;;
11817;SDS011;5966;52.402;5.322;2022-09-12T02:27:19;19.97;;;16.77;;
11817;SDS011;5966;52.402;5.322;2022-09-12T02:29:50;17.77;;;15.87;;
11817;SDS011;5966;52.402;5.322;2022-09-12T02:35:28;17.60;;;15.70;;
11817;SDS011;5966;52.402;5.322;2022-09-12T02:38:12;18.10;;;16.20;;
11817;SDS011;5966;52.402;5.322;2022-09-12T02:41:02;17.43;;;15.70;;
11817;SDS011;5966;52.402;5.322;2022-09-12T02:43:44;18.23;;;15.70;;
11817;SDS011;5966;52.402;5.322;2022-09-12T02:46:21;21.00;;;16.43;;
11817;SDS011;5966;52.402;5.322;2022-09-12T02:48:54;18.53;;;16.60;;
11817;SDS011;5966;52.402;5.322;2022-09-12T02:51:26;17.03;;;15.27;;
11817;SDS011;5966;52.402;5.322;2022-09-12T02:54:00;19.00;;;15.33;;
11817;SDS011;5966;52.402;5.322;2022-09-12T02:56:39;18.50;;;16.70;;
11817;SDS011;5966;52.402;5.322;2022-09-12T02:59:14;17.67;;;15.73;;
11817;SDS011;5966;52.402;5.322;2022-09-12T03:01:58;18.47;;;16.20;;
11817;SDS011;5966;52.402;5.322;2022-09-12T03:07:49;18.57;;;16.63;;
11817;SDS011;5966;52.402;5.322;2022-09-12T03:10:40;18.13;;;16.23;;
11817;SDS011;5966;52.402;5.322;2022-09-12T03:13:17;18.00;;;16.10;;
11817;SDS011;5966;52.402;5.322;2022-09-12T03:15:52;19.07;;;16.20;;
11817;SDS011;5966;52.402;5.322;2022-09-12T03:18:36;17.73;;;15.60;;
11817;SDS011;5966;52.402;5.322;2022-09-12T03:21:24;17.27;;;15.43;;
11817;SDS011;5966;52.402;5.322;2022-09-12T03:24:15;17.43;;;15.53;;
11817;SDS011;5966;52.402;5.322;2022-09-12T03:27:11;18.33;;;15.97;;
11817;SDS011;5966;52.402;5.322;2022-09-12T03:29:56;18.77;;;14.87;;
11817;SDS011;5966;52.402;5.322;2022-09-12T03:32:46;16.83;;;15.10;;
11817;SDS011;5966;52.402;5.322;2022-09-12T03:35:19;18.77;;;16.87;;
11817;SDS011;5966;52.402;5.322;2022-09-12T03:37:49;17.10;;;15.30;;
11817;SDS011;5966;52.402;5.322;2022-09-12T03:40:19;19.83;;;15.27;;
11817;SDS011;5966;52.402;5.322;2022-09-12T03:42:47;18.23;;;16.33;;
11817;SDS011;5966;52.402;5.322;2022-09-12T03:45:16;17.37;;;15.47;;
11817;SDS011;5966;52.402;5.322;2022-09-12T03:47:44;18.00;;;16.20;;
11817;SDS011;5966;52.402;5.322;2022-09-12T03:50:13;18.37;;;16.47;;
11817;SDS011;5966;52.402;5.322;2022-09-12T03:52:41;16.93;;;15.13;;
11817;SDS011;5966;52.402;5.322;2022-09-12T03:55:11;18.33;;;16.47;;
11817;SDS011;5966;52.402;5.322;2022-09-12T03:57:42;16.90;;;15.00;;
11817;SDS011;5966;52.402;5.322;2022-09-12T04:00:11;17.90;;;16.00;;
11817;SDS011;5966;52.402;5.322;2022-09-12T04:02:45;17.73;;;15.83;;
11817;SDS011;5966;52.402;5.322;2022-09-12T04:05:15;18.40;;;15.80;;
11817;SDS011;5966;52.402;5.322;2022-09-12T04:07:43;17.37;;;15.57;;
11817;SDS011;5966;52.402;5.322;2022-09-12T04:10:11;17.47;;;15.57;;
11817;SDS011;5966;52.402;5.322;2022-09-12T04:12:42;18.23;;;15.53;;
11817;SDS011;5966;52.402;5.322;2022-09-12T04:15:11;17.70;;;15.80;;
11817;SDS011;5966;52.402;5.322;2022-09-12T04:17:41;17.33;;;15.43;;
11817;SDS011;5966;52.402;5.322;2022-09-12T04:20:16;18.03;;;15.50;;
11817;SDS011;5966;52.402;5.322;2022-09-12T04:22:52;17.30;;;15.23;;
11817;SDS011;5966;52.402;5.322;2022-09-12T04:25:23;18.33;;;15.33;;
11817;SDS011;5966;52.402;5.322;2022-09-12T04:27:57;17.17;;;15.50;;
11817;SDS011;5966;52.402;5.322;2022-09-12T04:30:28;17.60;;;15.83;;
11817;SDS011;5966;52.402;5.322;2022-09-12T04:32:58;18.00;;;16.13;;
11817;SDS011;5966;52.402;5.322;2022-09-12T04:35:35;17.97;;;16.10;;
11817;SDS011;5966;52.402;5.322;2022-09-12T04:38:15;17.70;;;15.77;;
11817;SDS011;5966;52.402;5.322;2022-09-12T04:40:48;18.07;;;16.17;;
11817;SDS011;5966;52.402;5.322;2022-09-12T04:43:20;17.73;;;15.93;;
11817;SDS011;5966;52.402;5.322;2022-09-12T04:45:49;17.87;;;16.07;;
11817;SDS011;5966;52.402;5.322;2022-09-12T04:48:17;17.83;;;15.93;;
11817;SDS011;5966;52.402;5.322;2022-09-12T04:50:46;19.03;;;16.03;;
11817;SDS011;5966;52.402;5.322;2022-09-12T04:53:20;19.50;;;16.63;;
11817;SDS011;5966;52.402;5.322;2022-09-12T04:55:48;18.20;;;16.30;;
11817;SDS011;5966;52.402;5.322;2022-09-12T04:58:17;18.40;;;16.40;;
11817;SDS011;5966;52.402;5.322;2022-09-12T05:00:46;20.20;;;17.40;;
11817;SDS011;5966;52.402;5.322;2022-09-12T05:03:17;19.80;;;17.20;;
11817;SDS011;5966;52.402;5.322;2022-09-12T05:06:06;18.90;;;16.93;;
11817;SDS011;5966;52.402;5.322;2022-09-12T05:09:27;21.53;;;17.23;;
11817;SDS011;5966;52.402;5.322;2022-09-12T05:11:55;20.07;;;17.87;;
11817;SDS011;5966;52.402;5.322;2022-09-12T05:14:31;20.57;;;16.97;;
11817;SDS011;5966;52.402;5.322;2022-09-12T05:17:03;21.23;;;18.37;;
11817;SDS011;5966;52.402;5.322;2022-09-12T05:19:33;22.37;;;18.83;;
11817;SDS011;5966;52.402;5.322;2022-09-12T05:22:04;20.97;;;18.10;;
11817;SDS011;5966;52.402;5.322;2022-09-12T05:24:36;21.73;;;18.17;;
11817;SDS011;5966;52.402;5.322;2022-09-12T05:30:05;21.73;;;18.13;;
11817;SDS011;5966;52.402;5.322;2022-09-12T05:36:28;23.07;;;18.97;;
11817;SDS011;5966;52.402;5.322;2022-09-12T05:39:06;22.13;;;18.60;;
11817;SDS011;5966;52.402;5.322;2022-09-12T05:41:55;25.53;;;19.93;;
11817;SDS011;5966;52.402;5.322;2022-09-12T05:44:27;21.50;;;19.20;;
11817;SDS011;5966;52.402;5.322;2022-09-12T05:47:10;22.13;;;19.63;;
11817;SDS011;5966;52.402;5.322;2022-09-12T05:50:26;25.07;;;17.90;;
11817;SDS011;5966;52.402;5.322;2022-09-12T05:57:52;20.10;;;17.07;;
11817;SDS011;5966;52.402;5.322;2022-09-12T06:03:59;24.37;;;19.93;;
11817;SDS011;5966;52.402;5.322;2022-09-12T06:07:02;21.97;;;18.63;;
11817;SDS011;5966;52.402;5.322;2022-09-12T06:09:54;23.03;;;19.87;;
11817;SDS011;5966;52.402;5.322;2022-09-12T06:12:57;22.53;;;18.47;;
11817;SDS011;5966;52.402;5.322;2022-09-12T06:15:42;27.87;;;20.43;;
11817;SDS011;5966;52.402;5.322;2022-09-12T06:18:40;25.40;;;18.63;;
11817;SDS011;5966;52.402;5.322;2022-09-12T06:21:42;23.60;;;18.87;;
11817;SDS011;5966;52.402;5.322;2022-09-12T06:24:27;22.60;;;18.77;;
11817;SDS011;5966;52.402;5.322;2022-09-12T06:27:27;22.93;;;18.63;;
11817;SDS011;5966;52.402;5.322;2022-09-12T06:30:35;24.27;;;19.40;;
11817;SDS011;5966;52.402;5.322;2022-09-12T06:33:13;25.67;;;18.73;;
11817;SDS011;5966;52.402;5.322;2022-09-12T06:37:34;24.53;;;19.33;;
11817;SDS011;5966;52.402;5.322;2022-09-12T06:40:29;26.27;;;19.83;;
11817;SDS011;5966;52.402;5.322;2022-09-12T06:43:27;26.10;;;19.10;;
11817;SDS011;5966;52.402;5.322;2022-09-12T06:50:38;24.77;;;19.27;;
11817;SDS011;5966;52.402;5.322;2022-09-12T06:53:14;26.03;;;19.97;;
11817;SDS011;5966;52.402;5.322;2022-09-12T06:56:44;25.07;;;20.60;;
11817;SDS011;5966;52.402;5.322;2022-09-12T07:11:14;24.90;;;20.30;;
11817;SDS011;5966;52.402;5.322;2022-09-12T07:14:24;25.37;;;20.07;;
11817;SDS011;5966;52.402;5.322;2022-09-12T07:17:29;31.20;;;22.63;;
11817;SDS011;5966;52.402;5.322;2022-09-12T08:30:04;29.20;;;21.77;;
11817;SDS011;5966;52.402;5.322;2022-09-12T08:33:58;27.57;;;20.27;;
11817;SDS011;5966;52.402;5.322;2022-09-12T08:37:41;27.37;;;20.43;;
11817;SDS011;5966;52.402;5.322;2022-09-12T08:41:39;28.80;;;22.33;;
11817;SDS011;5966;52.402;5.322;2022-09-12T08:45:26;31.17;;;22.13;;
11817;SDS011;5966;52.402;5.322;2022-09-12T08:57:41;26.43;;;20.20;;
11817;SDS011;5966;52.402;5.322;2022-09-12T09:00:11;24.20;;;18.90;;
11817;SDS011;5966;52.402;5.322;2022-09-12T09:02:53;18.90;;;15.63;;
11817;SDS011;5966;52.402;5.322;2022-09-12T09:05:42;17.43;;;14.27;;
11817;SDS011;5966;52.402;5.322;2022-09-12T09:08:28;18.27;;;15.20;;
11817;SDS011;5966;52.402;5.322;2022-09-12T09:11:17;18.60;;;13.87;;
11817;SDS011;5966;52.402;5.322;2022-09-12T09:16:37;16.50;;;13.73;;
11817;SDS011;5966;52.402;5.322;2022-09-12T09:19:16;17.67;;;13.80;;
11817;SDS011;5966;52.402;5.322;2022-09-12T09:21:51;16.23;;;14.10;;
11817;SDS011;5966;52.402;5.322;2022-09-12T09:24:32;19.20;;;14.93;;
11817;SDS011;5966;52.402;5.322;2022-09-12T09:27:09;16.00;;;13.33;;
11817;SDS011;5966;52.402;5.322;2022-09-12T09:30:04;15.63;;;13.03;;
11817;SDS011;5966;52.402;5.322;2022-09-12T09:32:43;15.27;;;13.20;;
11817;SDS011;5966;52.402;5.322;2022-09-12T09:35:25;16.23;;;13.87;;
11817;SDS011;5966;52.402;5.322;2022-09-12T09:55:48;12.70;;;11.27;;
11817;SDS011;5966;52.402;5.322;2022-09-12T09:59:29;13.23;;;10.77;;
11817;SDS011;5966;52.402;5.322;2022-09-12T10:02:57;10.37;;;8.87;;
11817;SDS011;5966;52.402;5.322;2022-09-12T10:10:13;7.80;;;6.73;;
11817;SDS011;5966;52.402;5.322;2022-09-12T10:13:32;8.67;;;5.97;;
11817;SDS011;5966;52.402;5.322;2022-09-12T10:17:20;7.90;;;5.07;;
11817;SDS011;5966;52.402;5.322;2022-09-12T10:20:34;6.80;;;4.90;;
11817;SDS011;5966;52.402;5.322;2022-09-12T10:23:27;5.77;;;4.73;;
11817;SDS011;5966;52.402;5.322;2022-09-12T10:32:49;5.07;;;3.97;;
11817;SDS011;5966;52.402;5.322;2022-09-12T10:35:48;4.60;;;3.77;;
11817;SDS011;5966;52.402;5.322;2022-09-12T10:39:17;5.20;;;3.83;;
11817;SDS011;5966;52.402;5.322;2022-09-12T10:45:19;5.17;;;4.53;;
11817;SDS011;5966;52.402;5.322;2022-09-12T10:48:21;5.43;;;4.67;;
11817;SDS011;5966;52.402;5.322;2022-09-12T10:50:56;5.70;;;4.23;;
11817;SDS011;5966;52.402;5.322;2022-09-12T10:53:38;8.10;;;4.57;;
11817;SDS011;5966;52.402;5.322;2022-09-12T10:56:12;4.70;;;4.27;;
11817;SDS011;5966;52.402;5.322;2022-09-12T11:01:35;5.00;;;4.50;;
11817;SDS011;5966;52.402;5.322;2022-09-12T11:04:19;5.23;;;4.63;;
11817;SDS011;5966;52.402;5.322;2022-09-12T11:06:57;6.43;;;4.60;;
11817;SDS011;5966;52.402;5.322;2022-09-12T11:09:41;5.93;;;5.27;;
11817;SDS011;5966;52.402;5.322;2022-09-12T11:12:18;5.73;;;4.90;;
11817;SDS011;5966;52.402;5.322;2022-09-12T11:14:59;6.57;;;5.30;;
11817;SDS011;5966;52.402;5.322;2022-09-12T11:17:43;6.70;;;6.00;;
11817;SDS011;5966;52.402;5.322;2022-09-12T11:20:32;7.73;;;5.53;;
11817;SDS011;5966;52.402;5.322;2022-09-12T11:23:43;6.90;;;6.20;;
11817;SDS011;5966;52.402;5.322;2022-09-12T11:26:28;8.73;;;6.03;;
11817;SDS011;5966;52.402;5.322;2022-09-12T11:29:20;7.73;;;6.03;;
11817;SDS011;5966;52.402;5.322;2022-09-12T11:32:09;7.73;;;5.80;;
11817;SDS011;5966;52.402;5.322;2022-09-12T11:34:49;11.03;;;6.53;;
11817;SDS011;5966;52.402;5.322;2022-09-12T11:37:29;5.70;;;5.20;;
11817;SDS011;5966;52.402;5.322;2022-09-12T11:40:16;7.60;;;5.87;;
11817;SDS011;5966;52.402;5.322;2022-09-12T11:42:54;7.30;;;5.60;;
11817;SDS011;5966;52.402;5.322;2022-09-12T11:45:27;4.77;;;4.37;;
11817;SDS011;5966;52.402;5.322;2022-09-12T11:48:03;4.93;;;4.33;;
11817;SDS011;5966;52.402;5.322;2022-09-12T11:50:37;6.70;;;4.80;;
11817;SDS011;5966;52.402;5.322;2022-09-12T11:53:10;7.10;;;5.30;;
11817;SDS011;5966;52.402;5.322;2022-09-12T11:55:49;5.63;;;4.50;;
11817;SDS011;5966;52.402;5.322;2022-09-12T11:58:27;4.57;;;4.17;;
11817;SDS011;5966;52.402;5.322;2022-09-12T12:01:05;4.00;;;3.60;;
11817;SDS011;5966;52.402;5.322;2022-09-12T12:04:14;4.30;;;3.70;;
11817;SDS011;5966;52.402;5.322;2022-09-12T12:06:50;3.97;;;3.57;;
11817;SDS011;5966;52.402;5.322;2022-09-12T12:09:21;4.75;;;3.58;;
11817;SDS011;5966;52.402;5.322;2022-09-12T12:11:50;3.97;;;3.63;;
11817;SDS011;5966;52.402;5.322;2022-09-12T12:14:25;3.23;;;2.93;;
11817;SDS011;5966;52.402;5.322;2022-09-12T12:17:00;3.60;;;3.30;;
11817;SDS011;5966;52.402;5.322;2022-09-12T12:19:31;3.90;;;3.50;;
11817;SDS011;5966;52.402;5.322;2022-09-12T12:22:11;3.63;;;3.20;;
11817;SDS011;5966;52.402;5.322;2022-09-12T12:24:53;3.73;;;3.27;;
11817;SDS011;5966;52.402;5.322;2022-09-12T12:36:29;4.90;;;3.30;;
11817;SDS011;5966;52.402;5.322;2022-09-12T12:54:28;3.78;;;3.20;;
11817;SDS011;5966;52.402;5.322;2022-09-12T12:57:04;2.63;;;2.43;;
11817;SDS011;5966;52.402;5.322;2022-09-12T12:59:44;2.90;;;2.70;;
11817;SDS011;5966;52.402;5.322;2022-09-12T13:02:21;3.65;;;3.30;;
11817;SDS011;5966;52.402;5.322;2022-09-12T13:04:53;2.63;;;2.43;;
11817;SDS011;5966;52.402;5.322;2022-09-12T13:07:32;12.37;;;2.37;;
11817;SDS011;5966;52.402;5.322;2022-09-12T13:10:04;3.30;;;2.90;;
11817;SDS011;5966;52.402;5.322;2022-09-12T13:12:34;3.08;;;2.40;;
11817;SDS011;5966;52.402;5.322;2022-09-12T13:18:15;3.20;;;2.90;;
11817;SDS011;5966;52.402;5.322;2022-09-12T13:20:49;8.47;;;2.90;;
11817;SDS011;5966;52.402;5.322;2022-09-12T13:23:24;3.93;;;2.40;;
11817;SDS011;5966;52.402;5.322;2022-09-12T13:26:02;58.63;;;6.10;;
11817;SDS011;5966;52.402;5.322;2022-09-12T13:28:36;2.83;;;2.50;;
11817;SDS011;5966;52.402;5.322;2022-09-12T13:31:06;2.70;;;2.50;;
11817;SDS011;5966;52.402;5.322;2022-09-12T13:33:41;3.10;;;2.40;;
11817;SDS011;5966;52.402;5.322;2022-09-12T13:36:22;3.15;;;2.40;;
11817;SDS011;5966;52.402;5.322;2022-09-12T13:39:07;3.33;;;3.00;;
11817;SDS011;5966;52.402;5.322;2022-09-12T13:41:49;3.97;;;2.90;;
11817;SDS011;5966;52.402;5.322;2022-09-12T13:44:38;3.97;;;2.85;;
11817;SDS011;5966;52.402;5.322;2022-09-12T13:47:11;3.10;;;2.80;;
11817;SDS011;5966;52.402;5.322;2022-09-12T13:49:43;3.13;;;2.53;;
11817;SDS011;5966;52.402;5.322;2022-09-12T13:52:14;3.10;;;2.60;;
11817;SDS011;5966;52.402;5.322;2022-09-12T13:54:46;3.53;;;2.57;;
11817;SDS011;5966;52.402;5.322;2022-09-12T13:57:26;2.67;;;2.47;;
11817;SDS011;5966;52.402;5.322;2022-09-12T13:59:56;3.20;;;2.67;;
11817;SDS011;5966;52.402;5.322;2022-09-12T14:02:27;3.40;;;2.63;;
11817;SDS011;5966;52.402;5.322;2022-09-12T14:05:00;2.97;;;2.40;;
11817;SDS011;5966;52.402;5.322;2022-09-12T14:07:46;2.45;;;2.25;;
11817;SDS011;5966;52.402;5.322;2022-09-12T14:10:31;3.97;;;2.60;;
11817;SDS011;5966;52.402;5.322;2022-09-12T14:13:08;2.70;;;2.50;;
11817;SDS011;5966;52.402;5.322;2022-09-12T14:15:39;3.90;;;2.40;;
11817;SDS011;5966;52.402;5.322;2022-09-12T14:18:21;2.95;;;2.75;;
11817;SDS011;5966;52.402;5.322;2022-09-12T14:20:53;3.20;;;2.80;;
11817;SDS011;5966;52.402;5.322;2022-09-12T14:23:26;2.70;;;2.50;;
11817;SDS011;5966;52.402;5.322;2022-09-12T14:25:56;3.10;;;2.80;;
11817;SDS011;5966;52.402;5.322;2022-09-12T14:28:27;2.70;;;2.50;;
11817;SDS011;5966;52.402;5.322;2022-09-12T14:31:00;4.73;;;3.20;;
11817;SDS011;5966;52.402;5.322;2022-09-12T14:33:32;5.50;;;3.07;;
11817;SDS011;5966;52.402;5.322;2022-09-12T14:36:17;3.47;;;3.15;;
11817;SDS011;5966;52.402;5.322;2022-09-12T14:38:50;5.90;;;5.32;;
11817;SDS011;5966;52.402;5.322;2022-09-12T14:41:24;2.65;;;2.45;;
11817;SDS011;5966;52.402;5.322;2022-09-12T14:43:58;3.35;;;2.28;;
11817;SDS011;5966;52.402;5.322;2022-09-12T14:46:32;5.57;;;2.38;;
11817;SDS011;5966;52.402;5.322;2022-09-12T14:49:05;6.20;;;5.60;;
11817;SDS011;5966;52.402;5.322;2022-09-12T14:51:44;3.40;;;3.17;;
11817;SDS011;5966;52.402;5.322;2022-09-12T14:54:33;3.15;;;2.85;;
11817;SDS011;5966;52.402;5.322;2022-09-12T14:57:05;2.95;;;2.67;;
11817;SDS011;5966;52.402;5.322;2022-09-12T14:59:48;2.65;;;2.45;;
11817;SDS011;5966;52.402;5.322;2022-09-12T15:02:25;2.50;;;2.30;;
11817;SDS011;5966;52.402;5.322;2022-09-12T15:07:49;2.60;;;2.40;;
11817;SDS011;5966;52.402;5.322;2022-09-12T15:10:21;2.53;;;2.33;;
11817;SDS011;5966;52.402;5.322;2022-09-12T15:15:49;3.95;;;2.83;;
11817;SDS011;5966;52.402;5.322;2022-09-12T15:18:19;2.47;;;2.27;;
11817;SDS011;5966;52.402;5.322;2022-09-12T15:20:50;3.85;;;2.47;;
11817;SDS011;5966;52.402;5.322;2022-09-12T15:23:28;2.47;;;2.28;;
11817;SDS011;5966;52.402;5.322;2022-09-12T15:26:10;2.20;;;2.10;;
11817;SDS011;5966;52.402;5.322;2022-09-12T15:28:38;3.65;;;2.58;;
11817;SDS011;5966;52.402;5.322;2022-09-12T15:31:10;3.45;;;2.53;;
11817;SDS011;5966;52.402;5.322;2022-09-12T15:33:51;2.22;;;2.13;;
11817;SDS011;5966;52.402;5.322;2022-09-12T15:36:22;2.50;;;2.30;;
11817;SDS011;5966;52.402;5.322;2022-09-12T15:38:54;2.45;;;2.20;;
11817;SDS011;5966;52.402;5.322;2022-09-12T15:41:24;3.28;;;2.97;;
11817;SDS011;5966;52.402;5.322;2022-09-12T15:43:55;3.65;;;2.50;;
11817;SDS011;5966;52.402;5.322;2022-09-12T15:46:23;2.20;;;2.10;;
11817;SDS011;5966;52.402;5.322;2022-09-12T15:48:53;3.47;;;2.58;;
11817;SDS011;5966;52.402;5.322;2022-09-12T15:51:24;3.50;;;2.38;;
11817;SDS011;5966;52.402;5.322;2022-09-12T15:53:54;2.67;;;2.13;;
11817;SDS011;5966;52.402;5.322;2022-09-12T15:56:26;2.87;;;2.63;;
11817;SDS011;5966;52.402;5.322;2022-09-12T15:58:54;3.30;;;2.23;;
11817;SDS011;5966;52.402;5.322;2022-09-12T16:01:27;2.47;;;1.70;;
11817;SDS011;5966;52.402;5.322;2022-09-12T16:03:56;2.40;;;2.20;;
11817;SDS011;5966;52.402;5.322;2022-09-12T16:06:24;4.07;;;2.33;;
11817;SDS011;5966;52.402;5.322;2022-09-12T16:09:04;4.97;;;2.40;;
11817;SDS011;5966;52.402;5.322;2022-09-12T16:11:40;2.22;;;2.10;;
11817;SDS011;5966;52.402;5.322;2022-09-12T16:14:11;3.23;;;2.00;;
11817;SDS011;5966;52.402;5.322;2022-09-12T16:16:42;2.63;;;2.42;;
11817;SDS011;5966;52.402;5.322;2022-09-12T16:19:11;2.28;;;2.08;;
11817;SDS011;5966;52.402;5.322;2022-09-12T16:21:41;4.18;;;2.92;;
11817;SDS011;5966;52.402;5.322;2022-09-12T16:24:13;2.75;;;2.28;;
11817;SDS011;5966;52.402;5.322;2022-09-12T16:26:42;3.03;;;2.75;;
11817;SDS011;5966;52.402;5.322;2022-09-12T16:29:11;3.88;;;3.53;;
11817;SDS011;5966;52.402;5.322;2022-09-12T16:31:39;2.75;;;2.50;;
11817;SDS011;5966;52.402;5.322;2022-09-12T16:34:09;2.63;;;2.27;;
11817;SDS011;5966;52.402;5.322;2022-09-12T16:36:40;2.03;;;1.92;;
11817;SDS011;5966;52.402;5.322;2022-09-12T16:39:13;2.90;;;2.60;;
11817;SDS011;5966;52.402;5.322;2022-09-12T16:41:47;2.50;;;2.30;;
11817;SDS011;5966;52.402;5.322;2022-09-12T16:44:16;1.92;;;1.80;;
11817;SDS011;5966;52.402;5.322;2022-09-12T16:46:44;2.33;;;2.13;;
11817;SDS011;5966;52.402;5.322;2022-09-12T16:49:13;3.33;;;2.08;;
11817;SDS011;5966;52.402;5.322;2022-09-12T16:51:41;5.68;;;5.18;;
11817;SDS011;5966;52.402;5.322;2022-09-12T16:54:16;2.70;;;2.50;;
11817;SDS011;5966;52.402;5.322;2022-09-12T16:57:04;2.90;;;2.70;;
11817;SDS011;5966;52.402;5.322;2022-09-12T16:59:32;2.85;;;2.65;;
11817;SDS011;5966;52.402;5.322;2022-09-12T17:02:00;2.28;;;2.08;;
11817;SDS011;5966;52.402;5.322;2022-09-12T17:04:37;2.55;;;2.35;;
11817;SDS011;5966;52.402;5.322;2022-09-12T17:07:05;7.20;;;4.57;;
11817;SDS011;5966;52.402;5.322;2022-09-12T17:09:35;3.35;;;3.05;;
11817;SDS011;5966;52.402;5.322;2022-09-12T17:12:04;2.65;;;2.45;;
11817;SDS011;5966;52.402;5.322;2022-09-12T17:14:32;2.40;;;2.20;;
11817;SDS011;5966;52.402;5.322;2022-09-12T17:17:00;3.03;;;2.47;;
11817;SDS011;5966;52.402;5.322;2022-09-12T17:19:30;3.55;;;2.95;;
11817;SDS011;5966;52.402;5.322;2022-09-12T17:21:59;2.20;;;2.00;;
11817;SDS011;5966;52.402;5.322;2022-09-12T17:24:28;2.67;;;2.30;;
11817;SDS011;5966;52.402;5.322;2022-09-12T17:27:01;3.05;;;2.00;;
11817;SDS011;5966;52.402;5.322;2022-09-12T17:29:29;2.20;;;2.00;;
11817;SDS011;5966;52.402;5.322;2022-09-12T17:32:01;2.38;;;2.08;;
11817;SDS011;5966;52.402;5.322;2022-09-12T17:34:29;3.50;;;2.10;;
11817;SDS011;5966;52.402;5.322;2022-09-12T17:36:57;2.37;;;2.17;;
11817;SDS011;5966;52.402;5.322;2022-09-12T17:39:26;5.10;;;2.33;;
11817;SDS011;5966;52.402;5.322;2022-09-12T17:41:54;5.23;;;2.60;;
11817;SDS011;5966;52.402;5.322;2022-09-12T17:44:29;2.83;;;2.20;;
11817;SDS011;5966;52.402;5.322;2022-09-12T17:47:01;5.90;;;2.30;;
11817;SDS011;5966;52.402;5.322;2022-09-12T17:49:32;4.57;;;2.47;;
11817;SDS011;5966;52.402;5.322;2022-09-12T17:52:17;2.20;;;2.00;;
11817;SDS011;5966;52.402;5.322;2022-09-12T17:54:47;2.07;;;1.93;;
11817;SDS011;5966;52.402;5.322;2022-09-12T17:57:15;5.00;;;4.23;;
11817;SDS011;5966;52.402;5.322;2022-09-12T17:59:45;4.73;;;3.70;;
11817;SDS011;5966;52.402;5.322;2022-09-12T18:02:13;2.90;;;2.70;;
11817;SDS011;5966;52.402;5.322;2022-09-12T18:04:42;2.30;;;2.10;;
11817;SDS011;5966;52.402;5.322;2022-09-12T18:07:17;2.70;;;2.50;;
11817;SDS011;5966;52.402;5.322;2022-09-12T18:09:46;3.23;;;2.40;;
11817;SDS011;5966;52.402;5.322;2022-09-12T18:12:15;2.80;;;2.30;;
11817;SDS011;5966;52.402;5.322;2022-09-12T18:14:47;3.07;;;2.17;;
11817;SDS011;5966;52.402;5.322;2022-09-12T18:17:32;3.33;;;2.57;;
11817;SDS011;5966;52.402;5.322;2022-09-12T18:20:00;3.10;;;2.23;;
11817;SDS011;5966;52.402;5.322;2022-09-12T18:22:32;3.40;;;2.50;;
11817;SDS011;5966;52.402;5.322;2022-09-12T18:25:00;4.20;;;2.43;;
11817;SDS011;5966;52.402;5.322;2022-09-12T18:27:29;2.60;;;2.40;;
11817;SDS011;5966;52.402;5.322;2022-09-12T18:29:58;2.80;;;2.53;;
11817;SDS011;5966;52.402;5.322;2022-09-12T18:32:46;2.60;;;2.40;;
11817;SDS011;5966;52.402;5.322;2022-09-12T18:35:14;2.80;;;2.60;;
11817;SDS011;5966;52.402;5.322;2022-09-12T18:38:00;3.00;;;2.70;;
11817;SDS011;5966;52.402;5.322;2022-09-12T18:40:28;3.30;;;2.20;;
11817;SDS011;5966;52.402;5.322;2022-09-12T18:42:56;2.60;;;2.40;;
11817;SDS011;5966;52.402;5.322;2022-09-12T18:45:25;4.53;;;2.50;;
11817;SDS011;5966;52.402;5.322;2022-09-12T18:47:54;3.93;;;2.30;;
11817;SDS011;5966;52.402;5.322;2022-09-12T18:50:23;2.40;;;1.83;;
11817;SDS011;5966;52.402;5.322;2022-09-12T18:52:52;4.10;;;2.43;;
11817;SDS011;5966;52.402;5.322;2022-09-12T18:55:24;3.60;;;2.20;;
11817;SDS011;5966;52.402;5.322;2022-09-12T18:57:54;2.43;;;2.23;;
11817;SDS011;5966;52.402;5.322;2022-09-12T19:00:23;2.70;;;2.50;;
11817;SDS011;5966;52.402;5.322;2022-09-12T19:03:04;3.10;;;2.30;;
11817;SDS011;5966;52.402;5.322;2022-09-12T19:05:45;2.90;;;2.60;;
11817;SDS011;5966;52.402;5.322;2022-09-12T19:08:13;5.20;;;2.67;;
11817;SDS011;5966;52.402;5.322;2022-09-12T19:10:51;4.07;;;2.60;;
11817;SDS011;5966;52.402;5.322;2022-09-12T19:13:21;3.17;;;2.70;;